Time;durP1;ratioP1;P1;durP2;ratioP2;P2;SDS_P1;SDS_P2;PMS_P1;PMS_P2;Temp;Humidity;BMP_temperature;BMP_pressure;BME280_temperature;BME280_humidity;BME280_pressure;Samples;Min_cycle;Max_cycle;Signal;HPM_P1;HPM_P2
2022/12/02 00:01:48;;;;;;;30.70;28.00;;;;;;;-0.79;89.71;98685.50;105019;1307;22228;-88
2022/12/02 00:04:25;;;;;;;30.20;27.10;;;;;;;-0.79;89.64;98685.42;104797;1314;22154;-87
2022/12/02 00:06:56;;;;;;;30.10;27.40;;;;;;;-0.80;89.88;98685.16;104684;1330;22151;-88
2022/12/02 00:09:30;;;;;;;29.30;26.60;;;;;;;-0.80;89.84;98687.45;104743;1329;22199;-89
2022/12/02 00:12:00;;;;;;;29.50;26.80;;;;;;;-0.79;89.82;98689.13;104727;1329;23023;-88
2022/12/02 00:14:33;;;;;;;27.10;24.60;;;;;;;-0.78;89.78;98685.30;104624;1330;22232;-89
2022/12/02 00:17:01;;;;;;;27.60;25.20;;;;;;;-0.76;90.07;98686.08;104828;1322;22251;-88
2022/12/02 00:19:29;;;;;;;30.20;27.50;;;;;;;-0.75;89.89;98687.54;104859;1309;22248;-88
2022/12/02 00:21:57;;;;;;;30.60;27.70;;;;;;;-0.76;89.80;98685.61;104960;1322;22176;-89
2022/12/02 00:24:25;;;;;;;30.80;28.20;;;;;;;-0.80;89.95;98686.89;104795;1330;22341;-88
2022/12/02 00:26:53;;;;;;;29.30;26.60;;;;;;;-0.83;89.91;98684.82;104816;1314;23552;-87
2022/12/02 00:29:20;;;;;;;27.40;24.70;;;;;;;-0.84;89.88;98686.61;104955;1322;22208;-87
2022/12/02 00:31:48;;;;;;;24.90;22.70;;;;;;;-0.84;89.81;98684.66;104680;1330;22116;-88
2022/12/02 00:34:16;;;;;;;24.90;22.60;;;;;;;-0.84;89.81;98684.83;104719;1329;22280;-88
2022/12/02 00:36:44;;;;;;;22.90;20.90;;;;;;;-0.84;90.09;98682.61;104903;1322;22268;-89
2022/12/02 00:39:12;;;;;;;23.80;21.60;;;;;;;-0.86;89.96;98687.92;104778;1329;22212;-89
2022/12/02 00:41:40;;;;;;;26.30;23.80;;;;;;;-0.92;89.93;98686.17;104625;1327;22257;-88
2022/12/02 00:46:56;;;;;;;24.40;22.30;;;;;;;-0.97;89.72;98680.48;104969;1322;22175;-88
2022/12/02 00:49:24;;;;;;;24.30;21.90;;;;;;;-0.97;89.83;98676.98;105115;1314;22165;-88
2022/12/02 00:51:52;;;;;;;26.40;24.00;;;;;;;-1.01;89.83;98675.71;104794;1329;22920;-89
2022/12/02 00:54:20;;;;;;;23.90;21.90;;;;;;;-1.04;89.63;98673.72;104760;1329;22209;-88
2022/12/02 00:56:48;;;;;;;25.70;23.40;;;;;;;-1.09;89.56;98671.56;104770;1329;22163;-87
2022/12/02 00:59:16;;;;;;;26.50;23.80;;;;;;;-1.15;89.59;98670.92;104648;1329;22190;-88
2022/12/02 01:01:44;;;;;;;24.10;22.00;;;;;;;-1.17;89.76;98664.13;105098;1323;22155;-89
2022/12/02 01:04:12;;;;;;;23.00;20.60;;;;;;;-1.16;89.77;98666.24;104727;1329;22203;-87
2022/12/02 01:06:40;;;;;;;23.80;21.70;;;;;;;-1.17;89.95;98662.98;104624;1323;22219;-87
2022/12/02 01:09:08;;;;;;;24.30;22.00;;;;;;;-1.19;89.87;98660.35;104719;1329;22105;-87
2022/12/02 01:11:36;;;;;;;24.60;22.40;;;;;;;-1.22;89.94;98660.79;104636;1330;23572;-87
2022/12/02 01:14:04;;;;;;;22.90;20.70;;;;;;;-1.25;89.68;98662.63;104464;1330;22912;-89
2022/12/02 01:16:33;;;;;;;22.60;20.50;;;;;;;-1.26;89.77;98659.05;104628;1330;22872;-88
2022/12/02 01:19:01;;;;;;;23.10;21.00;;;;;;;-1.28;89.95;98657.90;104657;1330;22171;-87
2022/12/02 01:21:29;;;;;;;23.90;21.70;;;;;;;-1.29;89.86;98652.70;104985;1314;22083;-86
2022/12/02 01:23:58;;;;;;;25.30;23.10;;;;;;;-1.28;90.00;98654.53;104820;1329;22226;-88
2022/12/02 01:26:26;;;;;;;25.90;23.60;;;;;;;-1.29;90.04;98656.16;104808;1329;22842;-88
2022/12/02 01:28:54;;;;;;;27.40;25.00;;;;;;;-1.34;89.99;98656.56;104656;1328;22165;-88
2022/12/02 01:31:22;;;;;;;26.60;23.80;;;;;;;-1.35;90.16;98654.04;104522;1330;22934;-88
2022/12/02 01:33:50;;;;;;;25.30;23.10;;;;;;;-1.34;90.09;98654.08;104928;1321;22197;-88
2022/12/02 01:36:18;;;;;;;24.90;22.60;;;;;;;-1.29;89.94;98652.25;104775;1329;22216;-87
2022/12/02 01:38:46;;;;;;;25.80;23.50;;;;;;;-1.26;90.10;98652.14;104788;1329;22203;-90
2022/12/02 01:41:13;;;;;;;26.40;23.90;;;;;;;-1.22;90.23;98650.49;104771;1329;22797;-91
2022/12/02 01:43:42;;;;;;;30.30;27.70;;;;;;;-1.17;90.18;98651.10;104971;1315;23067;-89
2022/12/02 01:46:10;;;;;;;27.40;25.00;;;;;;;-1.13;90.14;98649.20;104764;1324;22204;-87
2022/12/02 01:48:38;;;;;;;30.00;27.40;;;;;;;-1.13;90.28;98650.98;104764;1328;22464;-87
2022/12/02 01:51:07;;;;;;;27.40;24.90;;;;;;;-1.18;90.09;98650.73;105108;1322;22175;-87
2022/12/02 01:53:35;;;;;;;26.90;24.50;;;;;;;-1.20;90.15;98645.73;104644;1330;22200;-88
2022/12/02 01:56:03;;;;;;;26.20;23.80;;;;;;;-1.22;90.21;98649.94;104620;1329;22335;-88
2022/12/02 01:58:32;;;;;;;26.60;24.20;;;;;;;-1.21;90.33;98650.23;104630;1330;22249;-87
2022/12/02 02:01:00;;;;;;;27.40;24.90;;;;;;;-1.21;90.32;98652.00;104717;1322;22210;-87
2022/12/02 02:03:28;;;;;;;28.90;26.10;;;;;;;-1.24;90.32;98651.56;104764;1329;22197;-87
2022/12/02 02:05:56;;;;;;;29.60;27.10;;;;;;;-1.26;90.59;98654.77;104655;1330;22272;-88
2022/12/02 02:08:24;;;;;;;27.10;24.60;;;;;;;-1.29;90.40;98653.86;104760;1329;22227;-88
2022/12/02 02:10:52;;;;;;;26.40;24.00;;;;;;;-1.31;90.37;98655.70;104556;1330;22083;-87
2022/12/02 02:13:21;;;;;;;25.80;23.50;;;;;;;-1.32;90.41;98651.59;104773;1329;22246;-86
2022/12/02 02:15:49;;;;;;;26.40;24.00;;;;;;;-1.34;90.38;98653.19;104521;1330;22941;-87
2022/12/02 02:18:17;;;;;;;27.30;24.90;;;;;;;-1.40;90.63;98649.92;104899;1310;22193;-87
2022/12/02 02:20:45;;;;;;;27.40;25.00;;;;;;;-1.42;90.55;98648.91;104734;1329;22082;-88
2022/12/02 02:23:19;;;;;;;29.70;27.00;;;;;;;-1.44;90.50;98648.83;104993;1322;22197;-88
2022/12/02 02:25:50;;;;;;;25.60;23.30;;;;;;;-1.46;90.53;98647.90;104956;1322;22340;-86
2022/12/02 02:28:23;;;;;;;27.10;24.80;;;;;;;-1.49;90.54;98643.88;104554;1330;23144;-87
2022/12/02 02:30:54;;;;;;;19.00;17.00;;;;;;;-1.46;90.45;98644.69;104513;1330;22911;-87
2022/12/02 02:33:28;;;;;;;27.40;24.70;;;;;;;-1.46;90.75;98640.08;104947;1317;22972;-88
2022/12/02 02:35:56;;;;;;;26.30;24.00;;;;;;;-1.50;90.73;98637.52;104918;1317;22277;-87
2022/12/02 02:38:27;;;;;;;30.40;27.70;;;;;;;-1.50;90.72;98638.63;104708;1329;22192;-88
2022/12/02 02:40:56;;;;;;;27.90;25.50;;;;;;;-1.53;90.79;98642.65;104932;1314;22183;-89
2022/12/02 02:43:27;;;;;;;26.20;23.80;;;;;;;-1.52;90.69;98642.69;104536;1334;22215;-88
2022/12/02 02:45:57;;;;;;;26.90;24.60;;;;;;;-1.49;90.78;98634.52;104635;1330;23112;-88
2022/12/02 02:48:30;;;;;;;29.00;26.60;;;;;;;-1.44;90.97;98631.64;104618;1328;22237;-87
2022/12/02 02:51:00;;;;;;;27.40;25.00;;;;;;;-1.38;90.84;98633.55;104730;1329;22161;-90
2022/12/02 02:53:30;;;;;;;25.40;23.20;;;;;;;-1.38;90.85;98627.80;104973;1314;22080;-89
2022/12/02 02:55:58;;;;;;;27.90;25.60;;;;;;;-1.41;90.85;98630.86;104638;1329;22086;-89
2022/12/02 02:58:28;;;;;;;24.50;22.30;;;;;;;-1.42;90.91;98630.62;104983;1322;22226;-91
2022/12/02 03:01:19;;;;;;;24.10;22.00;;;;;;;-1.43;90.81;98631.59;104739;1329;22238;-89
2022/12/02 03:03:52;;;;;;;22.40;20.20;;;;;;;-1.42;90.82;98630.77;104767;1329;22206;-89
2022/12/02 03:06:23;;;;;;;21.40;19.60;;;;;;;-1.40;91.00;98628.83;104652;1333;22234;-88
2022/12/02 03:08:53;;;;;;;22.30;20.20;;;;;;;-1.43;91.00;98629.69;104824;1310;22206;-89
2022/12/02 03:11:22;;;;;;;21.50;19.70;;;;;;;-1.46;90.98;98626.05;104793;1329;22197;-89
2022/12/02 03:13:51;;;;;;;19.30;17.60;;;;;;;-1.50;90.88;98625.34;104804;1329;22231;-89
2022/12/02 03:16:23;;;;;;;18.60;16.90;;;;;;;-1.55;90.88;98626.21;104775;1330;22226;-89
2022/12/02 03:18:54;;;;;;;17.50;16.00;;;;;;;-1.54;90.77;98621.98;104811;1333;22187;-89
2022/12/02 03:21:24;;;;;;;18.40;16.80;;;;;;;-1.51;90.92;98623.36;104793;1334;22152;-89
2022/12/02 03:23:56;;;;;;;21.30;19.40;;;;;;;-1.51;91.05;98622.31;104679;1333;22212;-88
2022/12/02 03:26:25;;;;;;;19.20;17.40;;;;;;;-1.49;90.97;98620.23;104955;1322;22102;-89
2022/12/02 03:28:54;;;;;;;21.60;19.70;;;;;;;-1.50;90.91;98619.92;104965;1322;22138;-91
2022/12/02 03:31:23;;;;;;;19.10;17.40;;;;;;;-1.51;90.94;98617.77;104740;1335;22199;-88
2022/12/02 03:33:51;;;;;;;19.90;18.10;;;;;;;-1.50;90.98;98617.77;104571;1330;22211;-89
2022/12/02 03:36:20;;;;;;;19.70;17.80;;;;;;;-1.46;90.76;98616.25;104904;1330;22121;-91
2022/12/02 03:38:48;;;;;;;19.70;18.00;;;;;;;-1.43;90.91;98616.78;104945;1333;22188;-88
2022/12/02 03:41:17;;;;;;;19.00;17.10;;;;;;;-1.41;90.81;98610.90;104653;1331;22273;-90
2022/12/02 03:43:45;;;;;;;19.40;17.80;;;;;;;-1.45;90.80;98608.04;104773;1336;23146;-89
2022/12/02 03:46:14;;;;;;;18.70;17.00;;;;;;;-1.50;90.53;98609.34;104681;1335;22182;-90
2022/12/02 03:48:42;;;;;;;19.50;17.60;;;;;;;-1.55;90.72;98606.69;104791;1329;22265;-90
2022/12/02 03:51:11;;;;;;;18.50;16.80;;;;;;;-1.57;90.78;98604.58;104543;1336;22192;-89
2022/12/02 03:53:39;;;;;;;16.70;15.20;;;;;;;-1.58;90.44;98602.36;104799;1335;22275;-89
2022/12/02 03:56:08;;;;;;;17.30;15.70;;;;;;;-1.60;90.67;98600.92;104747;1329;22259;-89
2022/12/02 03:58:54;;;;;;;18.00;16.40;;;;;;;-1.61;90.66;98599.59;104924;1314;22238;-90
2022/12/02 04:01:23;;;;;;;19.30;17.40;;;;;;;-1.64;90.61;98602.67;104647;1336;22309;-90
2022/12/02 04:03:52;;;;;;;18.20;16.50;;;;;;;-1.67;90.72;98597.63;104743;1333;22202;-89
2022/12/02 04:06:20;;;;;;;18.20;16.60;;;;;;;-1.66;90.69;98597.98;104937;1323;22178;-89
2022/12/02 04:08:48;;;;;;;;;;;;;;;-1.63;90.78;98600.96;104678;1336;22748;-86
2022/12/02 04:11:16;;;;;;;17.80;16.30;;;;;;;-1.60;90.79;98603.73;104719;1330;22195;-89
2022/12/02 04:13:44;;;;;;;18.70;17.10;;;;;;;-1.62;90.88;98608.24;104766;1330;22169;-89
2022/12/02 04:16:12;;;;;;;19.80;18.10;;;;;;;-1.66;90.62;98607.42;104915;1324;22856;-90
2022/12/02 04:18:40;;;;;;;20.40;18.50;;;;;;;-1.68;90.81;98605.19;104751;1330;22359;-88
2022/12/02 04:21:08;;;;;;;22.00;20.00;;;;;;;-1.65;90.89;98607.11;104958;1326;22217;-87
2022/12/02 04:23:36;;;;;;;18.70;17.10;;;;;;;-1.65;90.60;98606.41;104708;1330;22189;-88
2022/12/02 04:26:04;;;;;;;18.90;17.20;;;;;;;-1.64;90.69;98605.56;105170;1318;22221;-89
2022/12/02 04:28:32;;;;;;;43.50;19.50;;;;;;;-1.59;90.81;98601.83;104814;1334;22234;-88
2022/12/02 04:31:00;;;;;;;19.60;17.70;;;;;;;-1.58;90.74;98599.21;104684;1317;22179;-89
2022/12/02 04:33:28;;;;;;;21.10;18.70;;;;;;;-1.55;91.03;98602.99;104666;1333;22177;-88
2022/12/02 04:35:56;;;;;;;21.60;19.70;;;;;;;-1.55;90.92;98602.88;104887;1317;23056;-90
2022/12/02 04:38:24;;;;;;;21.10;19.10;;;;;;;-1.52;91.15;98604.38;104628;1318;22202;-90
2022/12/02 04:40:52;;;;;;;19.50;17.70;;;;;;;-1.50;90.96;98603.29;104810;1322;22183;-88
2022/12/02 04:43:19;;;;;;;17.50;15.90;;;;;;;-1.48;90.63;98600.23;104804;1329;22184;-89
2022/12/02 04:45:47;;;;;;;18.40;16.80;;;;;;;-1.48;90.57;98606.20;104737;1330;22121;-89
2022/12/02 04:48:15;;;;;;;18.20;16.50;;;;;;;-1.51;90.75;98603.58;104773;1336;22107;-90
2022/12/02 04:50:43;;;;;;;18.60;17.00;;;;;;;-1.54;90.78;98604.39;104797;1328;22278;-90
2022/12/02 04:53:11;;;;;;;18.20;16.50;;;;;;;-1.60;90.61;98603.56;104827;1330;22213;-89
2022/12/02 04:55:39;;;;;;;17.00;15.50;;;;;;;-1.62;90.85;98606.00;104804;1329;22141;-88
2022/12/02 04:58:07;;;;;;;18.60;16.80;;;;;;;-1.59;90.89;98601.89;104758;1329;22211;-87
2022/12/02 05:00:35;;;;;;;17.70;16.20;;;;;;;-1.56;90.99;98599.41;104810;1325;22214;-88
2022/12/02 05:03:03;;;;;;;18.60;16.90;;;;;;;-1.55;90.87;98595.76;104699;1329;22323;-89
2022/12/02 05:05:31;;;;;;;25.50;23.10;;;;;;;-1.61;90.78;98597.47;104815;1327;22794;-87
2022/12/02 05:07:59;;;;;;;18.20;16.60;;;;;;;-1.63;90.93;98596.73;104725;1330;22107;-90
2022/12/02 05:10:27;;;;;;;20.50;18.60;;;;;;;-1.65;90.96;98590.67;104826;1330;22183;-88
2022/12/02 05:12:55;;;;;;;16.90;15.30;;;;;;;-1.64;90.87;98590.15;104827;1329;22103;-89
2022/12/02 05:15:23;;;;;;;17.20;15.70;;;;;;;-1.62;90.88;98592.79;104716;1323;22208;-90
2022/12/02 05:17:51;;;;;;;17.70;16.10;;;;;;;-1.60;90.80;98591.05;104824;1330;22199;-89
2022/12/02 05:20:19;;;;;;;18.30;16.50;;;;;;;-1.60;91.04;98593.40;104857;1330;22082;-88
2022/12/02 05:22:47;;;;;;;17.50;15.90;;;;;;;-1.61;91.05;98592.67;104811;1333;22300;-87
2022/12/02 05:25:15;;;;;;;21.60;16.10;;;;;;;-1.63;91.03;98588.48;104781;1330;22100;-90
2022/12/02 05:27:43;;;;;;;17.40;15.90;;;;;;;-1.64;90.95;98588.16;104713;1331;22114;-90
2022/12/02 05:30:12;;;;;;;15.00;13.60;;;;;;;-1.66;90.97;98589.70;104841;1328;22288;-91
2022/12/02 05:32:40;;;;;;;16.00;14.40;;;;;;;-1.66;90.96;98588.04;104807;1329;22159;-89
2022/12/02 05:35:08;;;;;;;15.00;13.70;;;;;;;-1.64;90.74;98588.37;104844;1330;22164;-90
2022/12/02 05:37:36;;;;;;;16.10;14.60;;;;;;;-1.63;90.91;98590.11;104660;1330;22199;-88
2022/12/02 05:40:05;;;;;;;16.60;15.10;;;;;;;-1.65;90.98;98594.50;104678;1329;22826;-90
2022/12/02 05:42:34;;;;;;;16.30;14.80;;;;;;;-1.66;91.10;98594.20;104762;1330;22074;-90
2022/12/02 05:45:13;;;;;;;17.30;15.80;;;;;;;-1.68;90.98;98596.80;104954;1317;22915;-89
2022/12/02 05:47:41;;;;;;;15.40;14.00;;;;;;;-1.66;91.09;98601.20;104564;1333;22151;-90
2022/12/02 05:50:12;;;;;;;15.50;13.90;;;;;;;-1.62;91.21;98596.91;104764;1329;22989;-90
2022/12/02 05:52:40;;;;;;;15.50;14.00;;;;;;;-1.57;90.98;98594.54;104754;1329;22090;-88
2022/12/02 05:55:17;;;;;;;17.20;15.50;;;;;;;-1.55;91.02;98596.16;104590;1318;22204;-88
2022/12/02 05:57:46;;;;;;;16.60;15.10;;;;;;;-1.55;90.91;98598.08;104793;1329;22352;-90
2022/12/02 06:00:20;;;;;;;15.40;14.00;;;;;;;-1.60;90.91;98599.06;104588;1332;22192;-91
2022/12/02 06:02:51;;;;;;;16.70;15.30;;;;;;;-1.67;90.97;98602.71;104993;1308;22075;-90
2022/12/02 06:05:23;;;;;;;17.10;15.40;;;;;;;-1.68;90.98;98601.08;104808;1328;22564;-91
2022/12/02 06:07:55;;;;;;;15.80;14.30;;;;;;;-1.63;91.03;98602.23;104763;1329;22202;-90
2022/12/02 06:10:29;;;;;;;20.70;18.90;;;;;;;-1.63;90.89;98604.50;104817;1329;22259;-90
2022/12/02 06:13:03;;;;;;;21.80;19.80;;;;;;;-1.66;91.03;98608.20;104947;1323;22345;-89
2022/12/02 06:15:37;;;;;;;22.60;20.80;;;;;;;-1.67;91.19;98608.52;104699;1330;22252;-88
2022/12/02 06:18:16;;;;;;;20.10;18.30;;;;;;;-1.68;91.12;98609.10;104668;1330;22259;-88
2022/12/02 06:20:50;;;;;;;16.00;14.30;;;;;;;-1.70;90.88;98608.03;105084;1322;22189;-90
2022/12/02 06:23:22;;;;;;;19.30;17.60;;;;;;;-1.69;90.91;98608.36;104589;1330;22123;-89
2022/12/02 06:25:51;;;;;;;16.60;15.00;;;;;;;-1.68;91.10;98611.16;104935;1311;22072;-91
2022/12/02 06:28:33;;;;;;;20.00;18.20;;;;;;;-1.70;91.11;98609.05;104701;1332;22135;-87
2022/12/02 06:31:29;;;;;;;20.00;18.30;;;;;;;-1.72;91.11;98611.05;104827;1321;22098;-89
2022/12/02 06:34:00;;;;;;;20.50;17.70;;;;;;;-1.76;91.02;98609.77;104862;1325;22114;-88
2022/12/02 06:36:32;;;;;;;16.80;15.00;;;;;;;-1.80;90.89;98606.55;104738;1330;22086;-90
2022/12/02 06:39:10;;;;;;;16.80;15.10;;;;;;;-1.76;91.10;98613.11;104872;1329;22162;-88
2022/12/02 06:41:39;;;;;;;20.30;18.50;;;;;;;-1.76;91.36;98612.91;104786;1332;22175;-87
2022/12/02 06:47:36;;;;;;;22.70;19.90;;;;;;;-1.76;91.28;98611.77;104692;1330;22843;-90
2022/12/02 06:50:04;;;;;;;20.70;18.50;;;;;;;-1.76;91.35;98610.34;104824;1327;22203;-89
2022/12/02 06:52:34;;;;;;;20.80;18.80;;;;;;;-1.77;91.13;98610.42;104792;1330;22920;-89
2022/12/02 06:55:27;;;;;;;23.10;18.50;;;;;;;-1.75;91.44;98615.27;104753;1330;22220;-89
2022/12/02 06:57:58;;;;;;;22.60;20.60;;;;;;;-1.74;91.30;98617.98;104925;1321;22077;-90
2022/12/02 07:00:26;;;;;;;26.70;18.70;;;;;;;-1.74;91.30;98620.42;104667;1330;22348;-89
2022/12/02 07:02:54;;;;;;;17.90;16.20;;;;;;;-1.74;91.23;98617.42;104761;1329;22275;-88
2022/12/02 07:05:22;;;;;;;16.60;15.00;;;;;;;-1.76;91.23;98619.58;104804;1329;22955;-89
2022/12/02 07:07:50;;;;;;;16.30;14.90;;;;;;;-1.76;91.37;98616.11;104676;1317;22202;-89
2022/12/02 07:10:26;;;;;;;19.00;16.70;;;;;;;-1.74;91.32;98618.43;104752;1329;22999;-88
2022/12/02 07:12:57;;;;;;;23.00;16.40;;;;;;;-1.71;91.39;98617.10;104912;1321;22105;-90
2022/12/02 07:15:31;;;;;;;22.00;17.50;;;;;;;-1.72;91.38;98625.14;104555;1330;22824;-89
2022/12/02 07:18:19;;;;;;;;;;;;;;;-1.76;91.56;98622.25;104768;1316;23015;-88
2022/12/02 07:20:48;;;;;;;17.10;15.60;;;;;;;-1.78;91.27;98626.60;105024;1314;176051;-89
2022/12/02 07:23:22;;;;;;;16.40;14.80;;;;;;;-1.74;91.32;98623.92;104544;1330;22955;-90
2022/12/02 07:25:52;;;;;;;;;;;;;;;-1.73;91.63;98628.44;104772;1329;22230;-87
2022/12/02 07:28:24;;;;;;;16.30;14.80;;;;;;;-1.79;91.65;98626.52;104764;1328;22239;-89
2022/12/02 07:30:59;;;;;;;19.20;17.20;;;;;;;-1.82;91.57;98629.60;105084;1317;22949;-89
2022/12/02 07:33:28;;;;;;;18.00;16.40;;;;;;;-1.83;91.45;98631.83;104794;1325;22204;-91
2022/12/02 07:35:56;;;;;;;16.00;14.50;;;;;;;-1.83;91.49;98638.65;104781;1328;22187;-87
2022/12/02 07:38:23;;;;;;;20.80;13.90;;;;;;;-1.81;91.39;98634.45;104576;1329;22281;-90
2022/12/02 07:41:14;;;;;;;15.40;13.90;;;;;;;-1.79;91.42;98637.33;104807;1329;23077;-91
2022/12/02 07:43:42;;;;;;;16.90;15.40;;;;;;;-1.78;91.40;98639.23;104762;1329;22119;-89
2022/12/02 07:46:10;;;;;;;18.00;16.40;;;;;;;-1.77;91.60;98636.27;104663;1328;22915;-87
2022/12/02 07:48:38;;;;;;;15.00;13.60;;;;;;;-1.78;91.39;98635.09;105099;1321;22207;-87
2022/12/02 07:51:06;;;;;;;20.40;14.60;;;;;;;-1.82;91.55;98639.39;105141;1308;22190;-89
2022/12/02 07:53:34;;;;;;;16.80;15.30;;;;;;;-1.79;91.58;98638.22;104783;1329;22834;-90
2022/12/02 07:56:03;;;;;;;17.80;15.90;;;;;;;-1.73;91.54;98637.06;105130;1313;22248;-89
2022/12/02 07:58:31;;;;;;;19.40;17.70;;;;;;;-1.69;91.66;98634.73;104790;1325;23053;-88
2022/12/02 08:01:18;;;;;;;22.30;20.20;;;;;;;-1.67;91.76;98633.08;104772;1329;22722;-89
2022/12/02 08:03:47;;;;;;;20.50;18.60;;;;;;;-1.67;91.50;98632.74;104565;1329;22235;-88
2022/12/02 08:06:15;;;;;;;19.20;17.20;;;;;;;-1.68;91.66;98635.44;104562;1328;22153;-88
2022/12/02 08:08:43;;;;;;;17.80;16.20;;;;;;;-1.65;91.58;98634.88;104638;1330;22492;-90
2022/12/02 08:11:11;;;;;;;19.20;17.50;;;;;;;-1.62;91.53;98635.40;104725;1324;22283;-89
2022/12/02 08:13:39;;;;;;;21.50;19.50;;;;;;;-1.62;91.71;98634.91;104735;1329;23320;-89
2022/12/02 08:16:07;;;;;;;18.80;17.00;;;;;;;-1.67;91.67;98633.97;104583;1329;22804;-89
2022/12/02 08:18:35;;;;;;;24.50;22.10;;;;;;;-1.75;91.58;98645.50;104658;1329;22123;-89
2022/12/02 08:21:03;;;;;;;20.80;16.80;;;;;;;-1.77;91.84;98647.64;104940;1317;22911;-90
2022/12/02 08:23:36;;;;;;;19.10;17.50;;;;;;;-1.79;91.77;98647.53;104798;1328;22221;-87
2022/12/02 08:26:04;;;;;;;22.80;20.60;;;;;;;-1.81;91.90;98644.44;104777;1329;22236;-89
2022/12/02 08:28:32;;;;;;;21.50;19.60;;;;;;;-1.80;91.80;98647.85;104781;1323;22188;-90
2022/12/02 08:31:00;;;;;;;21.40;19.30;;;;;;;-1.85;91.87;98650.73;104711;1330;22114;-90
2022/12/02 08:33:28;;;;;;;22.20;20.20;;;;;;;-1.89;91.69;98652.42;104827;1328;22111;-89
2022/12/02 08:35:56;;;;;;;22.30;20.30;;;;;;;-1.91;91.99;98650.80;104575;1329;22788;-89
2022/12/02 08:38:24;;;;;;;24.10;22.00;;;;;;;-1.87;91.96;98653.57;104810;1329;22295;-90
2022/12/02 08:40:52;;;;;;;32.70;26.10;;;;;;;-1.83;91.99;98654.46;104601;1329;23038;-87
2022/12/02 08:43:20;;;;;;;36.40;32.90;;;;;;;-1.84;91.92;98658.16;104762;1329;22102;-89
2022/12/02 08:45:48;;;;;;;33.80;30.80;;;;;;;-1.87;92.00;98656.23;104657;1329;22960;-90
2022/12/02 08:48:16;;;;;;;27.70;25.10;;;;;;;-1.89;92.02;98658.48;104685;1330;22275;-88
2022/12/02 08:50:44;;;;;;;27.40;24.00;;;;;;;-1.90;91.94;98657.92;104637;1329;23056;-88
2022/12/02 08:53:14;;;;;;;28.70;26.00;;;;;;;-1.89;91.92;98654.78;104692;1330;22215;-90
2022/12/02 08:55:42;;;;;;;31.20;28.00;;;;;;;-1.87;91.99;98657.48;104803;1329;22280;-91
2022/12/02 08:58:10;;;;;;;30.40;27.60;;;;;;;-1.85;92.04;98658.41;104677;1328;22193;-89
2022/12/02 09:00:39;;;;;;;29.80;27.10;;;;;;;-1.83;92.15;98655.23;105128;1320;22116;-87
2022/12/02 09:03:08;;;;;;;31.40;28.40;;;;;;;-1.82;92.44;98658.65;104826;1329;22161;-89
2022/12/02 09:05:38;;;;;;;28.90;26.20;;;;;;;-1.76;92.36;98652.95;104723;1322;22248;-90
2022/12/02 09:08:07;;;;;;;27.60;24.80;;;;;;;-1.70;92.39;98654.09;104544;1330;22146;-89
2022/12/02 09:10:35;;;;;;;28.30;25.70;;;;;;;-1.63;92.17;98651.33;104552;1330;22900;-89
2022/12/02 09:13:03;;;;;;;30.50;27.70;;;;;;;-1.59;92.12;98642.89;104843;1320;22263;-89
2022/12/02 09:15:31;;;;;;;28.70;26.10;;;;;;;-1.54;92.56;98643.67;104934;1322;22176;-89
2022/12/02 09:17:59;;;;;;;30.40;27.70;;;;;;;-1.51;92.59;98644.15;104770;1329;22228;-90
2022/12/02 09:20:27;;;;;;;28.40;25.70;;;;;;;-1.50;92.43;98643.17;104961;1310;22978;-90
2022/12/02 09:22:55;;;;;;;26.20;23.70;;;;;;;-1.50;92.32;98641.06;104791;1329;22104;-90
2022/12/02 09:25:23;;;;;;;27.30;24.70;;;;;;;-1.49;92.45;98645.83;104680;1332;22203;-90
2022/12/02 09:27:51;;;;;;;27.10;24.60;;;;;;;-1.38;92.74;98642.90;104589;1329;22253;-89
2022/12/02 09:30:19;;;;;;;29.40;26.70;;;;;;;-1.35;92.17;98642.05;104544;1324;22215;-89
2022/12/02 09:32:47;;;;;;;33.50;30.10;;;;;;;-1.32;92.41;98642.27;104651;1329;22187;-88
2022/12/02 09:35:15;;;;;;;34.90;31.40;;;;;;;-1.31;92.44;98642.00;104670;1329;22964;-89
2022/12/02 09:37:43;;;;;;;31.00;28.10;;;;;;;-1.32;92.35;98644.80;104782;1329;23099;-89
2022/12/02 09:40:11;;;;;;;29.40;26.70;;;;;;;-1.34;92.28;98647.77;104562;1329;22318;-89
2022/12/02 09:42:40;;;;;;;28.30;25.60;;;;;;;-1.39;92.12;98647.48;104695;1328;22112;-90
2022/12/02 09:45:08;;;;;;;27.70;25.20;;;;;;;-1.42;92.17;98644.48;104797;1329;22845;-88
2022/12/02 09:47:36;;;;;;;27.50;25.00;;;;;;;-1.43;92.27;98644.02;104682;1329;22935;-89
2022/12/02 09:50:05;;;;;;;28.00;25.30;;;;;;;-1.49;92.26;98639.27;104715;1329;22961;-89
2022/12/02 09:52:33;;;;;;;28.40;25.40;;;;;;;-1.53;92.33;98641.91;104964;1317;22774;-90
2022/12/02 09:55:02;;;;;;;28.60;26.10;;;;;;;-1.49;92.59;98642.52;104805;1329;22214;-88
2022/12/02 09:57:31;;;;;;;25.70;23.30;;;;;;;-1.44;92.28;98639.11;104647;1329;22235;-90
2022/12/02 10:00:12;;;;;;;28.20;25.40;;;;;;;-1.37;92.51;98634.88;105139;1322;22121;-91
2022/12/02 10:02:49;;;;;;;26.90;24.50;;;;;;;-1.36;92.19;98638.30;104564;1330;22101;-90
2022/12/02 10:05:21;;;;;;;26.30;23.90;;;;;;;-1.41;91.97;98633.34;104673;1329;22214;-88
2022/12/02 10:07:52;;;;;;;27.50;24.90;;;;;;;-1.48;92.26;98634.71;104678;1327;22336;-89
2022/12/02 10:10:28;;;;;;;28.50;24.80;;;;;;;-1.47;92.60;98631.21;104575;1329;22111;-88
2022/12/02 10:12:57;;;;;;;27.00;24.50;;;;;;;-1.38;92.42;98629.07;104600;1329;22195;-89
2022/12/02 10:15:31;;;;;;;26.30;23.70;;;;;;;-1.36;92.24;98628.08;104726;1328;22214;-89
2022/12/02 10:18:09;;;;;;;24.90;22.50;;;;;;;-1.32;92.39;98625.09;104621;1330;22287;-90
2022/12/02 10:20:37;;;;;;;26.60;24.30;;;;;;;-1.26;92.09;98626.46;104655;1324;22215;-92
2022/12/02 10:23:13;;;;;;;32.60;29.80;;;;;;;-1.25;92.24;98625.98;104760;1330;22247;-90
2022/12/02 10:25:45;;;;;;;33.00;30.20;;;;;;;-1.29;92.13;98620.27;104814;1314;22477;-92
2022/12/02 10:28:30;;;;;;;34.50;31.60;;;;;;;-1.27;92.35;98621.98;104837;1329;22877;-86
2022/12/02 10:31:03;;;;;;;29.90;27.20;;;;;;;-1.28;92.19;98621.38;105118;1320;22254;-89
2022/12/02 10:33:37;;;;;;;23.80;21.70;;;;;;;-1.25;91.98;98619.63;104746;1329;22200;-86
2022/12/02 10:36:05;;;;;;;26.20;23.70;;;;;;;-1.26;91.82;98615.52;104945;1322;22208;-88
2022/12/02 10:38:44;;;;;;;27.90;25.30;;;;;;;-1.27;91.64;98615.27;104753;1328;22293;-88
2022/12/02 10:41:21;;;;;;;29.10;26.70;;;;;;;-1.27;91.94;98610.89;104667;1330;22960;-88
2022/12/02 10:43:52;;;;;;;27.30;24.90;;;;;;;-1.27;92.01;98609.49;104915;1319;22265;-87
2022/12/02 10:46:22;;;;;;;27.60;25.00;;;;;;;-1.25;92.07;98606.73;104715;1329;22219;-87
2022/12/02 10:48:50;;;;;;;24.40;22.00;;;;;;;-1.30;91.68;98605.23;104881;1321;22216;-87
2022/12/02 10:51:20;;;;;;;22.80;20.70;;;;;;;-1.34;91.42;98607.51;104909;1322;22090;-87
2022/12/02 10:53:51;;;;;;;25.70;23.20;;;;;;;-1.35;91.53;98606.48;104759;1329;22943;-87
2022/12/02 10:56:22;;;;;;;23.00;21.00;;;;;;;-1.39;91.65;98606.73;105094;1321;22297;-87
2022/12/02 10:58:51;;;;;;;25.30;23.20;;;;;;;-1.43;91.65;98605.52;104640;1330;22255;-89
2022/12/02 11:01:19;;;;;;;27.60;24.80;;;;;;;-1.50;91.34;98603.28;104982;1322;22231;-90
2022/12/02 11:03:48;;;;;;;26.00;23.70;;;;;;;-1.55;91.30;98604.22;104813;1329;22331;-86
2022/12/02 11:06:19;;;;;;;26.40;23.90;;;;;;;-1.62;91.19;98604.34;105189;1317;22271;-88
2022/12/02 11:08:48;;;;;;;25.30;22.90;;;;;;;-1.64;91.48;98602.55;105145;1308;22097;-90
2022/12/02 11:11:22;;;;;;;26.10;23.50;;;;;;;-1.64;91.44;98604.66;104799;1329;22199;-86
2022/12/02 11:14:02;;;;;;;27.90;25.50;;;;;;;-1.63;91.63;98601.01;105105;1308;22916;-87
2022/12/02 11:16:36;;;;;;;29.00;26.50;;;;;;;-1.61;91.70;98598.57;104803;1329;22775;-85
2022/12/02 11:19:39;;;;;;;29.50;26.90;;;;;;;-1.60;91.57;98600.59;105102;1308;22189;-88
2022/12/02 11:22:45;;;;;;;24.40;22.20;;;;;;;-1.62;91.29;98594.51;104726;1329;22170;-87
2022/12/02 11:25:46;;;;;;;25.20;23.10;;;;;;;-1.65;91.41;98593.88;105123;1313;22056;-86
2022/12/02 11:28:17;;;;;;;23.80;21.60;;;;;;;-1.65;91.37;98596.25;104765;1329;22224;-87
2022/12/02 11:30:46;;;;;;;28.10;25.60;;;;;;;-1.68;91.55;98595.67;104746;1330;22115;-86